Weather at Riverview Airport [CLOSED]

Public forecast

Using degrees Fahrenheit for public forecast. Weather courtesy of forecast.io.

Closest aviation weather report (METAR) to Riverview Airport

Report is more than 2 hours old.

Closest report is Needles Airport, 3.3 nm (6.2 km) SSW. Retrieved 2021/06/24 23:56 UTC (3 hours ago):

KEED 242356Z AUTO 36011G15KT 10SM CLR 34/13 A2980 RMK AO2 PK WND 18033/2258 LTG DSNT NE AND SE RAE22 SLP060 P0001 60016 T03390133 10394 20283 56007

Closest aviation forecast (TAF) to Riverview Airport

Closest forecast is Needles Airport, 3.3 nm (6.2 km) SSW. Retrieved 2021-06-25 00:22 UTC (3 hours ago):

TAF KEED 242320Z 2500/2524 20015G27KT P6SM VCTS SCT110CB FM250100 26007KT P6SM SCT120 FM251200 VRB06KT P6SM SKC